NAX175 CYHM-CYOW
Flight info
| Callsign | NAX175 |
|---|---|
| Flight time | 0h 45m |
| Altitude | 31000 |
| Route | DUROT DCT UKPAG DCT MIVOK CAPTL5 |
| Aircraft | B738/M-SDGIJ1LRWY/SB1 |
Departure
| Time | 2026-04-28 18:08 |
|---|---|
| Airport | John C. Munro Hamilton International Airport (CYHM) |
Arrival
| Time | 2026-04-28 18:53 |
|---|---|
| Airport | Ottawa Macdonald-Cartier International Airport (CYOW) |
| Time | Latitude | Longitude | Altitude | Speed | Heading |
|---|---|---|---|---|---|
| 2026-04-28 17:33 | 43.16482 | -79.92792 | 766 ft | 0 kts | 198° |
| 2026-04-28 17:55 | 43.16486 | -79.92790 | 766 ft | 2 kts | 197° |
| 2026-04-28 17:56 | 43.16500 | -79.92785 | 766 ft | 2 kts | 198° |
| 2026-04-28 17:56 | 43.16514 | -79.92778 | 766 ft | 2 kts | 198° |
| 2026-04-28 17:56 | 43.16528 | -79.92772 | 767 ft | 2 kts | 198° |
| 2026-04-28 17:56 | 43.16537 | -79.92767 | 767 ft | 2 kts | 197° |
| 2026-04-28 17:57 | 43.16551 | -79.92770 | 767 ft | 2 kts | 143° |
| 2026-04-28 17:57 | 43.16559 | -79.92782 | 767 ft | 0 kts | 111° |
| 2026-04-28 17:57 | 43.16560 | -79.92791 | 767 ft | 1 kts | 107° |
| 2026-04-28 17:57 | 43.16561 | -79.92793 | 767 ft | 0 kts | 107° |
| 2026-04-28 18:01 | 43.16556 | -79.92773 | 767 ft | 9 kts | 108° |
| 2026-04-28 18:01 | 43.16518 | -79.92625 | 766 ft | 17 kts | 107° |
| 2026-04-28 18:01 | 43.16580 | -79.92513 | 765 ft | 22 kts | 7° |
| 2026-04-28 18:01 | 43.16756 | -79.92622 | 767 ft | 30 kts | 328° |
| 2026-04-28 18:02 | 43.16933 | -79.92760 | 769 ft | 28 kts | 329° |
| 2026-04-28 18:02 | 43.17100 | -79.92892 | 770 ft | 27 kts | 329° |
| 2026-04-28 18:02 | 43.17261 | -79.93016 | 771 ft | 25 kts | 331° |
| 2026-04-28 18:02 | 43.17392 | -79.93165 | 773 ft | 23 kts | 294° |
| 2026-04-28 18:03 | 43.17442 | -79.93395 | 774 ft | 25 kts | 287° |
| 2026-04-28 18:03 | 43.17493 | -79.93622 | 773 ft | 19 kts | 291° |
| 2026-04-28 18:03 | 43.17558 | -79.93684 | 773 ft | 0 kts | 15° |
| 2026-04-28 18:06 | 43.17573 | -79.93678 | 773 ft | 9 kts | 15° |
| 2026-04-28 18:06 | 43.17666 | -79.93671 | 774 ft | 16 kts | 315° |
| 2026-04-28 18:07 | 43.17729 | -79.93876 | 772 ft | 32 kts | 288° |
| 2026-04-28 18:07 | 43.17824 | -79.94259 | 768 ft | 48 kts | 289° |
| 2026-04-28 18:07 | 43.17889 | -79.94483 | 766 ft | 3 kts | 245° |
| 2026-04-28 18:07 | 43.17863 | -79.94430 | 766 ft | 18 kts | 105° |
| 2026-04-28 18:08 | 43.17756 | -79.93966 | 771 ft | 83 kts | 108° |
| 2026-04-28 18:08 | 43.17527 | -79.92954 | 771 ft | 138 kts | 108° |
| 2026-04-28 18:08 | 43.17215 | -79.91541 | 1017 ft | 159 kts | 114° |
| 2026-04-28 18:08 | 43.16920 | -79.90069 | 1476 ft | 169 kts | 115° |
| 2026-04-28 18:09 | 43.16585 | -79.88490 | 1982 ft | 177 kts | 118° |
| 2026-04-28 18:09 | 43.16200 | -79.86849 | 2382 ft | 191 kts | 117° |
| 2026-04-28 18:09 | 43.15781 | -79.85058 | 2766 ft | 207 kts | 116° |
| 2026-04-28 18:09 | 43.15346 | -79.83103 | 3155 ft | 224 kts | 114° |
| 2026-04-28 18:10 | 43.14895 | -79.80985 | 3607 ft | 240 kts | 112° |
| 2026-04-28 18:10 | 43.14399 | -79.78729 | 3931 ft | 260 kts | 113° |
| 2026-04-28 18:10 | 43.13830 | -79.76302 | 4376 ft | 276 kts | 113° |
| 2026-04-28 18:10 | 43.13233 | -79.73741 | 4887 ft | 289 kts | 111° |
| 2026-04-28 18:11 | 43.12631 | -79.71091 | 5520 ft | 296 kts | 110° |
| 2026-04-28 18:11 | 43.12026 | -79.68398 | 6227 ft | 301 kts | 110° |
| 2026-04-28 18:11 | 43.11406 | -79.65639 | 6934 ft | 305 kts | 110° |
| 2026-04-28 18:11 | 43.10780 | -79.62859 | 7669 ft | 309 kts | 110° |
| 2026-04-28 18:12 | 43.10154 | -79.60077 | 8401 ft | 314 kts | 110° |
| 2026-04-28 18:12 | 43.09510 | -79.57200 | 9141 ft | 318 kts | 109° |
| 2026-04-28 18:12 | 43.09209 | -79.54211 | 9892 ft | 326 kts | 88° |
| 2026-04-28 18:12 | 43.09591 | -79.51150 | 10507 ft | 335 kts | 75° |
| 2026-04-28 18:13 | 43.10258 | -79.48051 | 11008 ft | 349 kts | 72° |
| 2026-04-28 18:13 | 43.10988 | -79.44791 | 11446 ft | 365 kts | 73° |
| 2026-04-28 18:13 | 43.11700 | -79.41400 | 11874 ft | 380 kts | 74° |
| 2026-04-28 18:13 | 43.12398 | -79.37862 | 12263 ft | 395 kts | 75° |
| 2026-04-28 18:14 | 43.13095 | -79.34186 | 12902 ft | 403 kts | 76° |
| 2026-04-28 18:14 | 43.13837 | -79.30483 | 13618 ft | 408 kts | 72° |
| 2026-04-28 18:14 | 43.14932 | -79.26902 | 14365 ft | 411 kts | 59° |
| 2026-04-28 18:14 | 43.16723 | -79.23904 | 15130 ft | 411 kts | 38° |
| 2026-04-28 18:15 | 43.19097 | -79.21716 | 15953 ft | 409 kts | 27° |
| 2026-04-28 18:15 | 43.21574 | -79.19837 | 16598 ft | 415 kts | 25° |
| 2026-04-28 18:15 | 43.24099 | -79.17974 | 17269 ft | 421 kts | 25° |
| 2026-04-28 18:15 | 43.26704 | -79.16029 | 17912 ft | 427 kts | 26° |
| 2026-04-28 18:16 | 43.29314 | -79.14045 | 18650 ft | 430 kts | 26° |
| 2026-04-28 18:16 | 43.31842 | -79.12096 | 19357 ft | 433 kts | 27° |
| 2026-04-28 18:16 | 43.34466 | -79.10053 | 20049 ft | 437 kts | 27° |
| 2026-04-28 18:16 | 43.37094 | -79.07994 | 20743 ft | 440 kts | 27° |
| 2026-04-28 18:17 | 43.39779 | -79.05884 | 21325 ft | 445 kts | 27° |
| 2026-04-28 18:17 | 43.41741 | -79.04340 | 21803 ft | 448 kts | 27° |
| 2026-04-28 18:17 | 43.43365 | -79.03060 | 22150 ft | 451 kts | 27° |
| 2026-04-28 18:17 | 43.46077 | -79.00919 | 22796 ft | 453 kts | 27° |
| 2026-04-28 18:18 | 43.48820 | -78.98753 | 23382 ft | 457 kts | 27° |
| 2026-04-28 18:18 | 43.51532 | -78.96477 | 23945 ft | 462 kts | 32° |
| 2026-04-28 18:18 | 43.54033 | -78.93698 | 24417 ft | 469 kts | 41° |
| 2026-04-28 18:18 | 43.55579 | -78.91552 | 24725 ft | 473 kts | 46° |
| 2026-04-28 18:19 | 43.58449 | -78.86955 | 25321 ft | 481 kts | 50° |
| 2026-04-28 18:19 | 43.60540 | -78.83363 | 26008 ft | 479 kts | 51° |
| 2026-04-28 18:19 | 43.62595 | -78.79804 | 26658 ft | 479 kts | 51° |
| 2026-04-28 18:19 | 43.64687 | -78.76214 | 26921 ft | 484 kts | 51° |
| 2026-04-28 18:20 | 43.66795 | -78.72646 | 26939 ft | 479 kts | 50° |
| 2026-04-28 18:20 | 43.68916 | -78.69106 | 26961 ft | 478 kts | 50° |
| 2026-04-28 18:20 | 43.71055 | -78.65581 | 27408 ft | 482 kts | 49° |
| 2026-04-28 18:20 | 43.73199 | -78.62075 | 28104 ft | 479 kts | 49° |
| 2026-04-28 18:21 | 43.75355 | -78.58567 | 28757 ft | 477 kts | 50° |
| 2026-04-28 18:21 | 43.77507 | -78.55073 | 28950 ft | 484 kts | 49° |
| 2026-04-28 18:21 | 43.79670 | -78.51568 | 29425 ft | 485 kts | 49° |
| 2026-04-28 18:21 | 43.81834 | -78.48065 | 30259 ft | 477 kts | 49° |
| 2026-04-28 18:22 | 43.83959 | -78.44621 | 30792 ft | 464 kts | 49° |
| 2026-04-28 18:22 | 43.86055 | -78.41222 | 30942 ft | 468 kts | 50° |
| 2026-04-28 18:22 | 43.90355 | -78.34235 | 30962 ft | 481 kts | 50° |
| 2026-04-28 18:23 | 43.94698 | -78.27163 | 30965 ft | 480 kts | 50° |
| 2026-04-28 18:23 | 43.99024 | -78.20097 | 30962 ft | 481 kts | 50° |
| 2026-04-28 18:24 | 44.02653 | -78.14157 | 30975 ft | 481 kts | 51° |
| 2026-04-28 18:24 | 44.07660 | -78.05939 | 30973 ft | 481 kts | 51° |
| 2026-04-28 18:25 | 44.11966 | -77.98846 | 30966 ft | 479 kts | 51° |
| 2026-04-28 18:26 | 44.18402 | -77.88219 | 30980 ft | 481 kts | 51° |
| 2026-04-28 18:26 | 44.22709 | -77.81090 | 30975 ft | 478 kts | 51° |
| 2026-04-28 18:27 | 44.26966 | -77.74026 | 30970 ft | 478 kts | 51° |
| 2026-04-28 18:27 | 44.31227 | -77.66937 | 30975 ft | 476 kts | 52° |
| 2026-04-28 18:27 | 44.33360 | -77.63383 | 30795 ft | 476 kts | 52° |
| 2026-04-28 18:28 | 44.35469 | -77.59862 | 30532 ft | 467 kts | 52° |
| 2026-04-28 18:28 | 44.37444 | -77.56381 | 30278 ft | 460 kts | 55° |
| 2026-04-28 18:28 | 44.39311 | -77.52780 | 30014 ft | 456 kts | 57° |
| 2026-04-28 18:28 | 44.41103 | -77.49139 | 29743 ft | 454 kts | 58° |
| 2026-04-28 18:29 | 44.42876 | -77.45464 | 29477 ft | 454 kts | 59° |
| 2026-04-28 18:29 | 44.44631 | -77.41811 | 29226 ft | 463 kts | 58° |
| 2026-04-28 18:29 | 44.46440 | -77.38039 | 28964 ft | 480 kts | 58° |
| 2026-04-28 18:29 | 44.48329 | -77.34111 | 28682 ft | 494 kts | 59° |
| 2026-04-28 18:30 | 44.50268 | -77.30102 | 28423 ft | 493 kts | 59° |
| 2026-04-28 18:30 | 44.51549 | -77.27464 | 28246 ft | 491 kts | 59° |
| 2026-04-28 18:30 | 44.53762 | -77.22922 | 27945 ft | 491 kts | 58° |
| 2026-04-28 18:30 | 44.55751 | -77.18844 | 27574 ft | 494 kts | 58° |
| 2026-04-28 18:31 | 44.57657 | -77.14944 | 27079 ft | 489 kts | 59° |
| 2026-04-28 18:31 | 44.59569 | -77.11032 | 26558 ft | 485 kts | 58° |
| 2026-04-28 18:31 | 44.61475 | -77.07130 | 26011 ft | 480 kts | 59° |
| 2026-04-28 18:31 | 44.63350 | -77.03289 | 25476 ft | 477 kts | 59° |
| 2026-04-28 18:32 | 44.65195 | -76.99504 | 24934 ft | 473 kts | 58° |
| 2026-04-28 18:32 | 44.66646 | -76.96521 | 24517 ft | 470 kts | 58° |
| 2026-04-28 18:32 | 44.67899 | -76.93941 | 24150 ft | 468 kts | 59° |
| 2026-04-28 18:32 | 44.69098 | -76.91468 | 23795 ft | 467 kts | 59° |
| 2026-04-28 18:33 | 44.72114 | -76.85232 | 22904 ft | 461 kts | 58° |
| 2026-04-28 18:33 | 44.73911 | -76.81511 | 22375 ft | 457 kts | 58° |
| 2026-04-28 18:33 | 44.75698 | -76.77805 | 21834 ft | 454 kts | 58° |
| 2026-04-28 18:33 | 44.77449 | -76.74171 | 21287 ft | 449 kts | 58° |
| 2026-04-28 18:34 | 44.79194 | -76.70545 | 20754 ft | 445 kts | 58° |
| 2026-04-28 18:34 | 44.80893 | -76.67011 | 20226 ft | 442 kts | 57° |
| 2026-04-28 18:34 | 44.82614 | -76.63426 | 19709 ft | 439 kts | 57° |
| 2026-04-28 18:34 | 44.84301 | -76.59905 | 19162 ft | 436 kts | 57° |
| 2026-04-28 18:35 | 44.85999 | -76.56358 | 18611 ft | 433 kts | 56° |
| 2026-04-28 18:35 | 44.87658 | -76.52886 | 18105 ft | 428 kts | 56° |
| 2026-04-28 18:35 | 44.89323 | -76.49394 | 17574 ft | 426 kts | 57° |
| 2026-04-28 18:35 | 44.90964 | -76.45953 | 17050 ft | 423 kts | 57° |
| 2026-04-28 18:36 | 44.92581 | -76.42561 | 16522 ft | 419 kts | 57° |
| 2026-04-28 18:36 | 44.93656 | -76.40305 | 16169 ft | 416 kts | 57° |
| 2026-04-28 18:36 | 44.95812 | -76.35910 | 15607 ft | 407 kts | 55° |
| 2026-04-28 18:36 | 44.97510 | -76.32737 | 15075 ft | 404 kts | 54° |
| 2026-04-28 18:37 | 44.99238 | -76.29633 | 14567 ft | 400 kts | 54° |
| 2026-04-28 18:37 | 45.00859 | -76.26746 | 14087 ft | 390 kts | 54° |
| 2026-04-28 18:37 | 45.02525 | -76.23769 | 13619 ft | 378 kts | 55° |
| 2026-04-28 18:37 | 45.04132 | -76.20870 | 13149 ft | 368 kts | 55° |
| 2026-04-28 18:38 | 45.05387 | -76.18584 | 12803 ft | 359 kts | 55° |
| 2026-04-28 18:38 | 45.06913 | -76.15785 | 12360 ft | 351 kts | 55° |
| 2026-04-28 18:38 | 45.08374 | -76.13090 | 11923 ft | 343 kts | 56° |
| 2026-04-28 18:38 | 45.09816 | -76.10421 | 11502 ft | 340 kts | 56° |
| 2026-04-28 18:39 | 45.11248 | -76.07765 | 11080 ft | 339 kts | 55° |
| 2026-04-28 18:39 | 45.12661 | -76.05145 | 10668 ft | 337 kts | 55° |
| 2026-04-28 18:39 | 45.13869 | -76.02904 | 10325 ft | 335 kts | 55° |
| 2026-04-28 18:39 | 45.15178 | -76.00479 | 10113 ft | 327 kts | 55° |
| 2026-04-28 18:40 | 45.16531 | -75.97977 | 9929 ft | 318 kts | 54° |
| 2026-04-28 18:40 | 45.17795 | -75.95641 | 9569 ft | 316 kts | 54° |
| 2026-04-28 18:40 | 45.19125 | -75.93176 | 9179 ft | 315 kts | 55° |
| 2026-04-28 18:40 | 45.20436 | -75.90708 | 8822 ft | 312 kts | 58° |
| 2026-04-28 18:41 | 45.21488 | -75.88047 | 8455 ft | 306 kts | 73° |
| 2026-04-28 18:41 | 45.21803 | -75.85192 | 8084 ft | 291 kts | 101° |
| 2026-04-28 18:41 | 45.21318 | -75.82479 | 7745 ft | 279 kts | 116° |
| 2026-04-28 18:41 | 45.20649 | -75.79917 | 7406 ft | 275 kts | 117° |
| 2026-04-28 18:42 | 45.19994 | -75.77398 | 7065 ft | 274 kts | 116° |
| 2026-04-28 18:42 | 45.19416 | -75.74814 | 6732 ft | 276 kts | 109° |
| 2026-04-28 18:42 | 45.19346 | -75.72081 | 6364 ft | 286 kts | 83° |
| 2026-04-28 18:42 | 45.20141 | -75.69510 | 6202 ft | 288 kts | 62° |
| 2026-04-28 18:43 | 45.21273 | -75.67143 | 6178 ft | 291 kts | 58° |
| 2026-04-28 18:43 | 45.22440 | -75.64799 | 5999 ft | 290 kts | 58° |
| 2026-04-28 18:43 | 45.23571 | -75.62431 | 5584 ft | 291 kts | 60° |
| 2026-04-28 18:43 | 45.24661 | -75.60062 | 5442 ft | 282 kts | 62° |
| 2026-04-28 18:44 | 45.25699 | -75.57760 | 5259 ft | 275 kts | 62° |
| 2026-04-28 18:44 | 45.27708 | -75.53255 | 4995 ft | 271 kts | 63° |
| 2026-04-28 18:44 | 45.28724 | -75.50961 | 4995 ft | 275 kts | 63° |
| 2026-04-28 18:45 | 45.29746 | -75.48659 | 4996 ft | 274 kts | 63° |
| 2026-04-28 18:45 | 45.30757 | -75.46392 | 5001 ft | 275 kts | 63° |
| 2026-04-28 18:45 | 45.31774 | -75.44119 | 4927 ft | 268 kts | 62° |
| 2026-04-28 18:45 | 45.32756 | -75.41942 | 4826 ft | 258 kts | 63° |
| 2026-04-28 18:46 | 45.33669 | -75.39804 | 4747 ft | 243 kts | 69° |
| 2026-04-28 18:46 | 45.34326 | -75.37652 | 4524 ft | 236 kts | 74° |
| 2026-04-28 18:46 | 45.35213 | -75.35738 | 4409 ft | 237 kts | 44° |
| 2026-04-28 18:46 | 45.36706 | -75.34800 | 4230 ft | 234 kts | 6° |
| 2026-04-28 18:47 | 45.38282 | -75.35009 | 3987 ft | 228 kts | 339° |
| 2026-04-28 18:47 | 45.39726 | -75.35925 | 3723 ft | 220 kts | 317° |
| 2026-04-28 18:47 | 45.40652 | -75.37490 | 3499 ft | 200 kts | 283° |
| 2026-04-28 18:47 | 45.40956 | -75.39323 | 3312 ft | 183 kts | 264° |
| 2026-04-28 18:48 | 45.40988 | -75.40181 | 3253 ft | 176 kts | 259° |
| 2026-04-28 18:48 | 45.40936 | -75.41844 | 3187 ft | 161 kts | 255° |
| 2026-04-28 18:48 | 45.40857 | -75.43378 | 3155 ft | 151 kts | 254° |
| 2026-04-28 18:48 | 45.40795 | -75.44857 | 3114 ft | 149 kts | 255° |
| 2026-04-28 18:49 | 45.40700 | -75.46292 | 3095 ft | 144 kts | 246° |
| 2026-04-28 18:49 | 45.40519 | -75.46927 | 3021 ft | 136 kts | 228° |
| 2026-04-28 18:49 | 45.40030 | -75.47810 | 2904 ft | 131 kts | 223° |
| 2026-04-28 18:49 | 45.39506 | -75.48907 | 2745 ft | 134 kts | 229° |
| 2026-04-28 18:50 | 45.39030 | -75.50040 | 2585 ft | 135 kts | 230° |
| 2026-04-28 18:50 | 45.38529 | -75.51161 | 2426 ft | 131 kts | 227° |
| 2026-04-28 18:50 | 45.38027 | -75.52246 | 2283 ft | 132 kts | 229° |
| 2026-04-28 18:50 | 45.37538 | -75.53361 | 2150 ft | 133 kts | 229° |
| 2026-04-28 18:51 | 45.37046 | -75.54469 | 2016 ft | 135 kts | 229° |
| 2026-04-28 18:51 | 45.36550 | -75.55603 | 1863 ft | 135 kts | 229° |
| 2026-04-28 18:51 | 45.36049 | -75.56708 | 1688 ft | 132 kts | 228° |
| 2026-04-28 18:51 | 45.35538 | -75.57794 | 1480 ft | 135 kts | 230° |
| 2026-04-28 18:52 | 45.35032 | -75.58910 | 1284 ft | 134 kts | 229° |
| 2026-04-28 18:52 | 45.34505 | -75.60015 | 1153 ft | 134 kts | 231° |
| 2026-04-28 18:52 | 45.34010 | -75.61153 | 983 ft | 137 kts | 232° |
| 2026-04-28 18:52 | 45.33506 | -75.62291 | 814 ft | 135 kts | 231° |
| 2026-04-28 18:53 | 45.33008 | -75.63412 | 600 ft | 136 kts | 233° |
| 2026-04-28 18:53 | 45.32491 | -75.64555 | 404 ft | 135 kts | 232° |
| 2026-04-28 18:53 | 45.32035 | -75.65561 | 370 ft | 104 kts | 237° |
| 2026-04-28 18:53 | 45.31773 | -75.66145 | 370 ft | 38 kts | 235° |
| 2026-04-28 18:54 | 45.31736 | -75.66291 | 371 ft | 7 kts | 295° |
| 2026-04-28 18:54 | 45.31775 | -75.66371 | 372 ft | 11 kts | 306° |
| 2026-04-28 18:54 | 45.31820 | -75.66453 | 373 ft | 9 kts | 319° |
| 2026-04-28 18:54 | 45.31876 | -75.66483 | 373 ft | 8 kts | 349° |
| 2026-04-28 18:55 | 45.31919 | -75.66539 | 373 ft | 7 kts | 307° |
| 2026-04-28 18:55 | 45.31949 | -75.66596 | 374 ft | 6 kts | 305° |
| 2026-04-28 18:55 | 45.31975 | -75.66634 | 374 ft | 4 kts | 351° |
| 2026-04-28 18:55 | 45.32005 | -75.66615 | 374 ft | 5 kts | 34° |
| 2026-04-28 18:56 | 45.32037 | -75.66584 | 374 ft | 5 kts | 35° |
| 2026-04-28 18:56 | 45.32050 | -75.66570 | 374 ft | 0 kts | 37° |